Norwich, North Dakota
Current Conditions -  °F | °C
As of 11:01 AM on Thursday 30 Oct 2014 (Local Time) from KMOT Reporting Station
Overcast Overcast  
Wind Chill: 25°   Ceiling: 1500
Heat Index: 34°   Visibility: 10mi
Dew Point: 28°   Wind: 14mph
Humidity: 79%   Direction: 350°N
Pressure: 30.38"   Gusts: NA
Location:  48.25°N, 100.99°W
Report Text: KMOT 301601Z 35012KT 10SM BKN015 OVC020 01/M02 A3038 RMK AO2 T00111022
Loading
Personal Weather Stations






























Interactive Weather Map
Tropical Storm Tracking
New forecast layout! Learn more

10-Day Weather Forecast

Advertisements
Track Severe Weather on mobile